Tolna, Pennsylvania
Current Conditions -  °F | °C
As of 3:53 AM on Friday 24 Oct 2014 (Local Time) from KTHV Reporting Station
Scattered Clouds Scattered Clouds  
Wind Chill: 55°   Ceiling: Unl
Heat Index: 55°   Visibility: 10mi
Dew Point: 42°   Wind: 12mph
Humidity: 62%   Direction: 300°WNW
Pressure: 29.9"   Gusts: NA
Location:  39.7456°N, 76.6794°W
Report Text: KTHV 240753Z AUTO 30010KT 10SM SCT039 13/06 A2990 RMK AO2 SLP127 T01280056
Loading
Personal Weather Stations






























Interactive Weather Map
Tropical Storm Tracking
New forecast layout! Learn more

10-Day Weather Forecast

Advertisements
Track Severe Weather on mobile